Time;durP1;ratioP1;P1;durP2;ratioP2;P2;SDS_P1;SDS_P2;PMS_P1;PMS_P2;Temp;Humidity;BMP_temperature;BMP_pressure;BME280_temperature;BME280_humidity;BME280_pressure;Samples;Min_cycle;Max_cycle;Signal;HPM_P1;HPM_P2
2021/06/08 00:02:13;;;;;;;8.02;6.70;;;17.80;88.00;;;;;;5053209;28;20071;-78
2021/06/08 00:04:39;;;;;;;9.02;7.13;;;17.80;88.10;;;;;;5053268;28;20301;-78
2021/06/08 00:07:04;;;;;;;10.93;7.95;;;17.80;88.10;;;;;;5051675;28;20032;-77
2021/06/08 00:09:30;;;;;;;10.38;7.40;;;17.80;88.20;;;;;;5051902;28;20057;-78
2021/06/08 00:11:56;;;;;;;9.35;7.53;;;17.80;88.20;;;;;;5052082;28;20025;-78
2021/06/08 00:14:22;;;;;;;11.85;8.20;;;17.80;88.30;;;;;;5051414;28;20060;-79
2021/06/08 00:16:47;;;;;;;10.13;7.50;;;17.70;88.20;;;;;;5052412;28;20029;-77
2021/06/08 00:19:13;;;;;;;10.30;8.00;;;17.70;88.20;;;;;;5051141;28;20029;-78
2021/06/08 00:21:39;;;;;;;9.63;7.38;;;17.70;88.30;;;;;;5052552;28;20053;-78
2021/06/08 00:24:05;;;;;;;8.90;6.95;;;17.70;88.30;;;;;;5052378;28;20100;-79
2021/06/08 00:26:32;;;;;;;9.88;7.20;;;17.70;88.40;;;;;;5052437;28;20066;-80
2021/06/08 00:28:58;;;;;;;9.00;7.63;;;17.70;88.40;;;;;;5051339;28;20518;-81
2021/06/08 00:31:24;;;;;;;11.93;7.82;;;17.70;88.40;;;;;;5051632;28;20025;-80
2021/06/08 00:33:50;;;;;;;8.65;7.70;;;17.70;88.30;;;;;;5052877;28;20118;-81
2021/06/08 00:36:17;;;;;;;10.23;7.20;;;17.60;88.40;;;;;;5051569;28;20025;-80
2021/06/08 00:38:43;;;;;;;9.90;7.57;;;17.60;88.40;;;;;;5052677;28;20483;-77
2021/06/08 00:41:08;;;;;;;9.82;7.72;;;17.50;88.50;;;;;;5050879;28;20029;-78
2021/06/08 00:43:35;;;;;;;8.38;7.53;;;17.50;88.70;;;;;;5051999;28;20028;-78
2021/06/08 00:46:00;;;;;;;8.23;7.00;;;17.50;88.80;;;;;;5051740;28;20422;-78
2021/06/08 00:48:27;;;;;;;11.93;7.70;;;17.40;88.90;;;;;;5051703;28;20040;-77
2021/06/08 00:50:52;;;;;;;11.57;7.68;;;17.40;89.10;;;;;;5051917;28;20075;-77
2021/06/08 00:53:18;;;;;;;11.25;7.82;;;17.30;89.40;;;;;;5054404;28;20033;-77
2021/06/08 00:55:44;;;;;;;8.55;7.35;;;17.30;89.70;;;;;;5055727;28;20039;-77
2021/06/08 00:58:10;;;;;;;11.27;7.60;;;17.30;89.80;;;;;;5054554;28;20033;-77
2021/06/08 01:00:36;;;;;;;10.38;7.88;;;17.30;90.00;;;;;;5056072;28;20021;-77
2021/06/08 01:03:03;;;;;;;9.68;7.70;;;17.30;90.00;;;;;;5056498;28;20013;-77
2021/06/08 01:05:29;;;;;;;9.63;7.70;;;17.30;90.00;;;;;;5056495;28;20051;-77
2021/06/08 01:07:55;;;;;;;7.72;6.93;;;17.20;90.00;;;;;;5056525;28;20021;-77
2021/06/08 01:10:21;;;;;;;9.82;8.07;;;17.20;90.10;;;;;;5056623;28;20071;-77
2021/06/08 01:12:47;;;;;;;10.40;8.43;;;17.20;90.10;;;;;;5056513;28;20033;-77
2021/06/08 01:15:12;;;;;;;9.45;7.80;;;17.20;90.20;;;;;;5056466;28;20024;-77
2021/06/08 01:17:39;;;;;;;12.98;8.50;;;17.20;90.50;;;;;;5056318;28;20068;-77
2021/06/08 01:20:08;;;;;;;10.00;8.00;;;17.20;90.40;;;;;;5056002;28;20070;-77
2021/06/08 01:22:34;;;;;;;11.13;9.10;;;17.20;90.40;;;;;;5054557;28;20032;-77
2021/06/08 01:25:00;;;;;;;10.20;8.25;;;17.30;90.40;;;;;;5054525;28;20025;-77
2021/06/08 01:27:26;;;;;;;12.00;7.43;;;17.30;90.30;;;;;;5054597;28;20021;-77
2021/06/08 01:29:54;;;;;;;10.27;7.63;;;17.30;90.30;;;;;;5055918;28;20048;-78
2021/06/08 01:32:24;;;;;;;10.60;8.23;;;17.30;90.20;;;;;;5054002;28;20025;-76
2021/06/08 01:34:51;;;;;;;9.77;7.80;;;17.30;90.20;;;;;;5055226;28;20122;-77
2021/06/08 01:37:17;;;;;;;10.38;7.70;;;17.30;90.20;;;;;;5055053;28;20021;-77
2021/06/08 01:39:46;;;;;;;10.43;7.90;;;17.40;90.20;;;;;;5053760;28;20025;-78
2021/06/08 01:42:12;;;;;;;10.10;8.20;;;17.40;90.30;;;;;;5055382;28;20029;-77
2021/06/08 01:44:42;;;;;;;8.88;7.78;;;17.40;90.30;;;;;;5055454;28;20071;-77
2021/06/08 01:47:08;;;;;;;13.75;8.25;;;17.40;90.30;;;;;;5055560;28;20021;-77
2021/06/08 01:49:34;;;;;;;9.40;8.07;;;17.40;90.30;;;;;;5055749;28;20379;-78
2021/06/08 01:52:17;;;;;;;10.15;8.45;;;17.40;90.30;;;;;;5054424;28;20029;-77
2021/06/08 01:55:11;;;;;;;8.95;7.55;;;17.40;90.40;;;;;;5056379;28;20043;-78
2021/06/08 01:57:46;;;;;;;8.57;7.75;;;17.40;90.40;;;;;;5056118;28;20040;-77
2021/06/08 02:00:23;;;;;;;9.13;8.23;;;17.50;90.40;;;;;;5055907;28;20028;-77
2021/06/08 02:03:10;;;;;;;13.35;8.30;;;17.50;90.40;;;;;;5055682;28;20025;-79
2021/06/08 02:06:08;;;;;;;9.70;8.18;;;17.50;90.30;;;;;;5056024;28;20033;-78
2021/06/08 02:08:43;;;;;;;11.02;8.40;;;17.50;90.30;;;;;;5047333;28;20033;-78
2021/06/08 02:11:29;;;;;;;25.73;18.15;;;17.50;90.30;;;;;;5054300;28;20090;-78
2021/06/08 02:14:11;;;;;;;12.25;9.23;;;17.50;90.30;;;;;;5055682;28;20070;-77
2021/06/08 02:16:40;;;;;;;10.32;8.38;;;17.60;90.40;;;;;;5054427;28;20068;-78
2021/06/08 02:19:06;;;;;;;11.05;8.80;;;17.60;90.40;;;;;;5053968;28;20361;-77
2021/06/08 02:21:36;;;;;;;12.07;9.38;;;17.60;90.40;;;;;;5053745;28;20028;-77
2021/06/08 02:24:04;;;;;;;16.13;8.85;;;17.60;90.40;;;;;;5054016;28;20029;-78
2021/06/08 02:26:33;;;;;;;12.88;9.07;;;17.60;90.30;;;;;;5055412;28;20104;-79
2021/06/08 02:29:01;;;;;;;10.80;9.23;;;17.70;90.30;;;;;;5054667;28;20078;-78
2021/06/08 02:31:29;;;;;;;14.27;9.20;;;17.70;90.20;;;;;;5054086;28;20081;-79
2021/06/08 02:33:55;;;;;;;12.88;9.52;;;17.80;90.20;;;;;;5054029;28;20363;-79
2021/06/08 02:36:22;;;;;;;11.73;8.63;;;17.80;90.10;;;;;;5054680;28;20482;-79
2021/06/08 02:38:49;;;;;;;13.90;9.35;;;17.80;90.10;;;;;;5055015;28;20502;-78
2021/06/08 02:41:16;;;;;;;10.05;9.13;;;17.90;90.00;;;;;;5054887;28;20045;-79
2021/06/08 02:43:45;;;;;;;9.55;8.57;;;17.90;89.90;;;;;;5055558;28;20367;-79
2021/06/08 02:46:11;;;;;;;13.43;9.18;;;18.00;89.90;;;;;;5053572;28;20491;-77
2021/06/08 02:48:39;;;;;;;16.25;8.57;;;18.10;89.70;;;;;;5035585;28;20376;-78
2021/06/08 02:51:05;;;;;;;12.60;9.18;;;18.20;89.60;;;;;;5053750;28;20051;-77
2021/06/08 02:53:33;;;;;;;10.75;8.23;;;18.30;89.60;;;;;;5052800;28;20033;-76
2021/06/08 02:55:59;;;;;;;11.75;8.23;;;18.60;89.50;;;;;;5053559;28;20029;-76
2021/06/08 02:58:26;;;;;;;8.98;7.78;;;19.20;90.50;;;;;;5053081;28;20038;-78
2021/06/08 03:00:52;;;;;;;12.73;7.57;;;20.30;90.30;;;;;;5054040;28;20018;-78
2021/06/08 03:03:21;;;;;;;9.48;7.30;;;21.40;85.80;;;;;;5054121;28;20172;-77
2021/06/08 03:05:51;;;;;;;9.65;6.53;;;21.90;80.80;;;;;;5053670;28;20032;-77
2021/06/08 03:08:38;;;;;;;8.63;7.20;;;22.70;79.90;;;;;;5053839;28;20021;-77
2021/06/08 03:11:08;;;;;;;10.85;7.45;;;23.80;75.70;;;;;;5054358;28;20439;-78
2021/06/08 03:13:36;;;;;;;9.82;7.70;;;24.20;72.50;;;;;;5053855;28;20067;-78
2021/06/08 03:16:03;;;;;;;12.18;7.55;;;24.00;70.20;;;;;;5053193;28;20025;-78
2021/06/08 03:18:31;;;;;;;8.30;7.10;;;23.70;69.50;;;;;;5053667;28;20379;-78
2021/06/08 03:20:58;;;;;;;10.40;7.40;;;23.40;69.40;;;;;;5053542;28;20048;-79
2021/06/08 03:23:28;;;;;;;9.32;6.95;;;23.30;69.80;;;;;;5054452;28;20414;-78
2021/06/08 03:25:56;;;;;;;10.85;7.53;;;23.50;71.00;;;;;;5054279;28;20024;-79
2021/06/08 03:28:24;;;;;;;6.70;6.10;;;24.40;70.30;;;;;;5053891;28;20045;-79
2021/06/08 03:30:51;;;;;;;7.38;6.65;;;25.60;69.00;;;;;;5054176;28;20031;-78
2021/06/08 03:33:19;;;;;;;8.73;6.63;;;27.00;66.60;;;;;;5054099;28;20031;-79
2021/06/08 03:35:45;;;;;;;11.57;6.85;;;27.80;62.90;;;;;;5053674;28;20025;-78
2021/06/08 03:38:11;;;;;;;8.57;7.20;;;27.80;60.40;;;;;;5053850;28;20471;-79
2021/06/08 03:40:38;;;;;;;7.95;7.15;;;27.50;59.60;;;;;;5054349;28;20017;-78
2021/06/08 03:43:04;;;;;;;10.45;7.47;;;27.00;59.50;;;;;;5053765;28;20441;-78
2021/06/08 03:45:30;;;;;;;7.75;7.05;;;26.60;59.90;;;;;;5053774;28;20020;-78
2021/06/08 03:47:58;;;;;;;8.55;7.47;;;26.80;61.20;;;;;;5053399;28;20021;-79
2021/06/08 03:50:25;;;;;;;7.40;6.63;;;27.70;60.90;;;;;;5052854;28;20063;-78
2021/06/08 03:52:55;;;;;;;9.73;7.20;;;28.90;59.80;;;;;;5052373;28;20021;-78
2021/06/08 03:55:23;;;;;;;9.27;6.65;;;29.80;57.60;;;;;;5052444;28;20021;-78
2021/06/08 03:57:53;;;;;;;8.57;6.32;;;30.60;56.10;;;;;;5052282;28;20784;-78
2021/06/08 04:00:21;;;;;;;10.63;6.30;;;31.20;54.20;;;;;;5052269;28;20028;-79
2021/06/08 04:02:47;;;;;;;8.52;5.70;;;31.60;53.10;;;;;;5052185;28;20021;-77
2021/06/08 04:05:14;;;;;;;8.50;6.03;;;32.40;52.40;;;;;;5052018;28;20069;-78
2021/06/08 04:07:46;;;;;;;6.38;5.78;;;33.00;50.60;;;;;;5052124;28;20021;-80
2021/06/08 04:10:22;;;;;;;10.25;5.75;;;33.20;49.50;;;;;;5052197;28;20017;-79
2021/06/08 04:12:49;;;;;;;21.67;8.85;;;33.50;48.80;;;;;;5052293;28;20032;-78
2021/06/08 04:15:24;;;;;;;10.43;6.28;;;33.30;48.10;;;;;;5052426;28;20056;-78
2021/06/08 04:17:51;;;;;;;23.40;8.32;;;32.60;48.00;;;;;;5051808;28;20625;-79
2021/06/08 04:20:25;;;;;;;8.07;5.53;;;31.90;48.60;;;;;;5051655;28;20032;-78
2021/06/08 04:22:55;;;;;;;8.82;7.07;;;31.20;49.20;;;;;;5050300;28;20044;-77
2021/06/08 04:25:20;;;;;;;7.43;6.53;;;30.70;50.00;;;;;;5051503;28;20028;-78
2021/06/08 04:27:46;;;;;;;13.38;6.50;;;30.20;50.50;;;;;;5051079;28;20025;-77
2021/06/08 04:30:14;;;;;;;10.02;6.80;;;29.60;51.10;;;;;;5051501;28;20360;-77
2021/06/08 04:32:39;;;;;;;9.68;6.80;;;29.00;52.00;;;;;;5051423;28;20422;-77
2021/06/08 04:35:07;;;;;;;10.93;6.47;;;28.60;52.80;;;;;;5051624;28;20018;-77
2021/06/08 04:37:34;;;;;;;8.20;7.00;;;28.20;53.50;;;;;;5050213;28;20021;-76
2021/06/08 04:40:00;;;;;;;10.43;6.80;;;28.00;54.10;;;;;;5051179;28;20041;-77
2021/06/08 04:42:26;;;;;;;12.57;6.95;;;27.90;54.70;;;;;;5051130;28;20028;-75
2021/06/08 04:44:53;;;;;;;10.40;6.20;;;28.10;55.10;;;;;;5051256;28;20387;-77
2021/06/08 04:47:23;;;;;;;12.23;7.20;;;28.60;54.90;;;;;;5050495;28;20027;-76
2021/06/08 04:49:49;;;;;;;9.07;6.43;;;29.00;54.20;;;;;;5049159;28;20025;-76
2021/06/08 04:52:15;;;;;;;8.38;6.85;;;29.50;53.80;;;;;;5050037;28;20070;-76
2021/06/08 04:54:42;;;;;;;8.88;6.35;;;29.90;53.20;;;;;;5048521;28;20028;-77
2021/06/08 04:57:12;;;;;;;13.98;7.90;;;30.30;52.60;;;;;;5047284;28;20525;-76
2021/06/08 05:00:10;;;;;;;12.50;7.28;;;30.60;52.00;;;;;;5049665;28;20031;-76
2021/06/08 05:02:52;;;;;;;7.20;6.25;;;31.20;51.40;;;;;;5049673;28;20464;-77
2021/06/08 05:05:27;;;;;;;13.23;7.95;;;31.90;50.70;;;;;;5048738;28;20485;-77
2021/06/08 05:08:05;;;;;;;10.32;7.15;;;33.10;50.20;;;;;;5052147;28;20078;-76
2021/06/08 05:10:33;;;;;;;11.10;6.32;;;34.50;48.50;;;;;;5047391;28;20379;-76
2021/06/08 05:13:00;;;;;;;11.48;6.38;;;35.80;47.30;;;;;;5049790;28;20474;-77
2021/06/08 05:15:27;;;;;;;10.38;6.10;;;37.00;45.60;;;;;;5049682;28;20009;-77
2021/06/08 05:17:55;;;;;;;6.80;5.60;;;38.30;44.00;;;;;;5049122;28;20501;-77
2021/06/08 05:20:21;;;;;;;12.88;8.20;;;39.50;42.80;;;;;;5049315;28;20040;-77
2021/06/08 05:22:49;;;;;;;11.50;8.95;;;40.60;41.40;;;;;;5046575;28;20466;-83
2021/06/08 05:25:15;;;;;;;12.35;7.78;;;40.60;39.70;;;;;;5050366;28;20087;-78
2021/06/08 05:27:42;;;;;;;11.55;9.43;;;40.40;39.50;;;;;;5049302;28;20045;-77
2021/06/08 05:30:10;;;;;;;15.60;9.63;;;40.30;39.40;;;;;;5046806;28;20116;-79
2021/06/08 05:32:38;;;;;;;14.82;9.05;;;40.10;39.10;;;;;;5049753;28;20013;-77
2021/06/08 05:35:08;;;;;;;8.68;5.35;;;39.70;39.20;;;;;;5049659;28;20096;-77
2021/06/08 05:37:44;;;;;;;12.93;9.30;;;39.60;39.20;;;;;;5050310;28;20468;-78
2021/06/08 05:40:11;;;;;;;15.57;10.32;;;39.40;39.30;;;;;;5049614;28;20441;-78
2021/06/08 05:42:37;;;;;;;11.45;7.18;;;39.10;39.50;;;;;;5052741;28;20040;-78
2021/06/08 05:45:04;;;;;;;11.85;7.72;;;38.60;39.60;;;;;;5051435;28;20122;-78
2021/06/08 05:47:30;;;;;;;11.95;6.93;;;38.20;40.00;;;;;;5053123;28;20017;-77
2021/06/08 05:49:56;;;;;;;9.10;7.13;;;37.60;40.40;;;;;;5053012;28;20023;-76
2021/06/08 05:52:22;;;;;;;8.60;7.45;;;37.00;40.90;;;;;;5051522;28;20036;-79
2021/06/08 05:54:49;;;;;;;7.32;5.93;;;36.30;41.50;;;;;;5052789;28;20027;-80
2021/06/08 05:57:15;;;;;;;10.65;6.47;;;36.00;42.00;;;;;;5052669;28;20021;-76
2021/06/08 05:59:41;;;;;;;7.05;5.78;;;35.90;42.40;;;;;;5052323;28;20075;-76
2021/06/08 06:02:10;;;;;;;9.52;5.40;;;36.00;42.60;;;;;;5049856;28;20539;-75
2021/06/08 06:04:37;;;;;;;5.63;5.13;;;36.60;42.80;;;;;;5052600;28;20028;-76
2021/06/08 06:07:03;;;;;;;10.52;5.72;;;37.60;42.40;;;;;;5052396;28;20029;-76
2021/06/08 16:24:53;;;;;;;17.35;7.15;;;23.60;59.30;;;;;;5123965;27;20316;-82
2021/06/08 16:27:19;;;;;;;10.18;6.47;;;23.00;62.70;;;;;;5075122;28;20032;-90
2021/06/08 16:29:46;;;;;;;8.60;5.93;;;22.80;64.60;;;;;;5092392;28;20064;-91
2021/06/08 16:32:11;;;;;;;10.07;4.95;;;22.80;66.00;;;;;;5081937;28;20435;-91
2021/06/08 16:34:37;;;;;;;7.38;6.10;;;22.70;66.60;;;;;;5074572;28;20063;-91
2021/06/08 16:37:04;;;;;;;11.63;5.63;;;22.70;67.10;;;;;;5074375;28;20025;-90
2021/06/08 16:39:30;;;;;;;7.85;6.93;;;22.70;67.50;;;;;;5074048;28;20029;-92
2021/06/08 16:41:59;;;;;;;6.38;4.63;;;22.60;67.80;;;;;;5081779;28;20044;-91
2021/06/08 16:44:26;;;;;;;18.52;10.82;;;22.60;68.00;;;;;;5088205;28;20048;-91
2021/06/08 16:46:52;;;;;;;17.02;10.30;;;22.60;68.20;;;;;;5091465;28;20029;-91
2021/06/08 16:49:20;;;;;;;16.90;9.55;;;22.50;68.40;;;;;;5090085;28;20039;-91
2021/06/08 16:54:13;;;;;;;16.95;8.18;;;22.50;69.20;;;;;;5075343;28;20517;-90
2021/06/08 16:56:40;;;;;;;18.30;9.52;;;22.50;69.70;;;;;;5076227;28;20032;-91
2021/06/08 16:59:06;;;;;;;20.80;17.92;;;22.40;70.10;;;;;;5083772;28;20032;-89
2021/06/08 17:01:33;;;;;;;30.88;18.70;;;22.40;71.00;;;;;;5085541;28;20025;-91
2021/06/08 17:03:59;;;;;;;142.30;113.30;;;22.30;70.60;;;;;;5085807;28;20052;-91
2021/06/08 17:06:25;;;;;;;43.03;35.33;;;22.30;71.20;;;;;;5089909;28;20012;-91
2021/06/08 17:08:51;;;;;;;10.57;8.57;;;22.30;70.50;;;;;;5079654;28;20071;-87
2021/06/08 17:11:17;;;;;;;13.65;6.88;;;22.20;70.30;;;;;;5071536;28;20482;-85
2021/06/08 17:13:43;;;;;;;44.67;25.17;;;22.20;70.40;;;;;;5068434;28;20029;-89
2021/06/08 17:16:08;;;;;;;64.55;44.25;;;22.10;70.40;;;;;;5069402;28;20048;-89
2021/06/08 17:18:34;;;;;;;36.03;23.42;;;22.00;70.40;;;;;;5069458;28;20040;-89
2021/06/08 17:21:00;;;;;;;36.65;25.88;;;21.90;70.50;;;;;;5069452;28;20027;-86
2021/06/08 17:23:27;;;;;;;34.75;29.90;;;21.90;70.60;;;;;;5068897;28;20437;-89
2021/06/08 17:25:53;;;;;;;38.67;27.85;;;21.80;70.70;;;;;;5069674;28;20383;-90
2021/06/08 17:28:21;;;;;;;9.60;8.10;;;21.70;70.70;;;;;;5068346;28;20029;-89
2021/06/08 17:30:47;;;;;;;23.55;14.48;;;21.70;70.80;;;;;;5069878;28;20029;-90
2021/06/08 17:33:13;;;;;;;62.42;41.08;;;21.60;70.90;;;;;;5068115;28;20477;-91
2021/06/08 17:35:40;;;;;;;19.55;13.35;;;21.50;70.80;;;;;;5058724;28;20025;-90
2021/06/08 17:38:06;;;;;;;16.38;10.82;;;21.40;71.00;;;;;;5054204;28;20048;-88
2021/06/08 17:40:33;;;;;;;9.88;6.45;;;21.30;71.10;;;;;;5054564;28;20049;-88
2021/06/08 17:42:59;;;;;;;17.25;15.45;;;21.20;71.10;;;;;;5055567;28;20017;-86
2021/06/08 17:45:26;;;;;;;15.65;10.73;;;21.20;71.30;;;;;;5060910;28;20020;-87
2021/06/08 17:47:54;;;;;;;15.52;10.02;;;21.10;71.30;;;;;;5070981;28;20669;-87
2021/06/08 17:50:20;;;;;;;9.98;5.82;;;21.00;71.30;;;;;;5055521;28;20548;-88
2021/06/08 17:52:46;;;;;;;6.53;5.70;;;20.90;71.30;;;;;;5056911;28;20108;-86
2021/06/08 17:55:12;;;;;;;5.32;4.82;;;20.90;71.30;;;;;;5057610;28;20024;-88
2021/06/08 17:57:38;;;;;;;6.03;4.57;;;20.80;71.30;;;;;;5056515;28;20029;-86
2021/06/08 18:00:06;;;;;;;7.28;5.70;;;20.70;71.40;;;;;;5056497;28;20048;-87
2021/06/08 18:02:39;;;;;;;6.63;4.70;;;20.60;71.60;;;;;;5055596;28;20032;-87
2021/06/08 18:05:11;;;;;;;5.05;4.38;;;20.60;72.10;;;;;;5054129;28;20061;-87
2021/06/08 18:07:37;;;;;;;11.95;4.82;;;20.50;72.30;;;;;;5055448;28;20503;-86
2021/06/08 18:10:06;;;;;;;9.18;5.90;;;20.50;72.40;;;;;;5055462;28;20029;-86
2021/06/08 18:12:32;;;;;;;7.80;4.45;;;20.40;72.50;;;;;;5055322;28;20017;-86
2021/06/08 18:15:10;;;;;;;11.68;4.50;;;20.40;72.50;;;;;;5055490;28;20439;-87
2021/06/08 18:17:37;;;;;;;5.63;4.40;;;20.40;72.50;;;;;;5055707;28;20092;-87
2021/06/08 18:20:07;;;;;;;11.48;7.88;;;20.30;72.40;;;;;;5054531;28;20021;-88
2021/06/08 18:22:35;;;;;;;6.00;3.58;;;20.30;72.50;;;;;;5069298;28;20017;-88
2021/06/08 18:25:03;;;;;;;25.05;18.73;;;20.30;72.30;;;;;;5065607;28;20099;-89
2021/06/08 18:28:08;;;;;;;7.88;5.07;;;20.20;72.40;;;;;;5057494;28;20021;-87
2021/06/08 18:30:35;;;;;;;5.85;4.43;;;20.10;72.40;;;;;;5026094;28;20036;-86
2021/06/08 18:33:01;;;;;;;4.00;3.53;;;20.10;72.60;;;;;;5054650;28;20033;-87
2021/06/08 18:35:55;;;;;;;7.40;4.28;;;20.10;72.70;;;;;;5056010;28;20025;-89
2021/06/08 18:38:24;;;;;;;7.63;4.60;;;20.00;72.90;;;;;;5054653;28;20029;-88
2021/06/08 18:40:54;;;;;;;14.60;4.63;;;19.90;72.90;;;;;;5057841;28;20028;-86
2021/06/08 18:43:21;;;;;;;8.70;4.72;;;19.90;73.10;;;;;;5063825;28;20036;-87
2021/06/08 18:45:47;;;;;;;8.32;5.30;;;19.80;73.20;;;;;;5072096;28;20127;-87
2021/06/08 18:48:18;;;;;;;9.88;4.30;;;19.80;73.50;;;;;;5070335;28;20450;-87
2021/06/08 18:50:44;;;;;;;8.67;4.70;;;19.80;73.80;;;;;;5075011;28;20053;-86
2021/06/08 18:53:10;;;;;;;7.38;4.43;;;19.80;73.80;;;;;;5064255;28;20330;-88
2021/06/08 18:55:36;;;;;;;6.50;4.47;;;19.70;73.90;;;;;;5060165;28;20032;-88
2021/06/08 18:58:02;;;;;;;5.38;4.60;;;19.70;74.10;;;;;;5065519;28;20025;-85
2021/06/08 19:00:30;;;;;;;6.05;4.40;;;19.60;74.20;;;;;;5075831;28;20021;-87
2021/06/08 19:02:56;;;;;;;7.00;4.53;;;19.60;74.40;;;;;;5056298;28;20032;-87
2021/06/08 19:05:22;;;;;;;7.28;4.75;;;19.60;74.60;;;;;;5053940;28;20033;-87
2021/06/08 19:07:48;;;;;;;8.85;4.20;;;19.50;74.60;;;;;;5053957;28;20064;-88
2021/06/08 19:10:14;;;;;;;8.80;5.28;;;19.50;74.70;;;;;;5053117;28;20048;-88
2021/06/08 19:12:45;;;;;;;8.05;4.82;;;19.50;74.80;;;;;;5053740;28;20029;-89
2021/06/08 19:15:12;;;;;;;5.10;4.07;;;19.50;74.90;;;;;;5053118;28;20021;-86
2021/06/08 19:17:42;;;;;;;5.38;4.22;;;19.40;74.80;;;;;;5052885;28;20494;-88
2021/06/08 19:20:08;;;;;;;7.22;4.22;;;19.40;74.90;;;;;;5052457;28;20025;-86
2021/06/08 19:22:34;;;;;;;9.20;4.32;;;19.40;74.90;;;;;;5052292;28;20496;-86
2021/06/08 19:24:59;;;;;;;7.72;4.10;;;19.40;74.80;;;;;;5052652;28;20051;-89
2021/06/08 19:27:27;;;;;;;8.02;3.67;;;19.30;74.80;;;;;;5052478;28;20037;-85
2021/06/08 19:29:53;;;;;;;4.13;3.72;;;19.40;74.90;;;;;;5052026;28;20032;-86
2021/06/08 19:32:19;;;;;;;4.28;3.75;;;19.30;74.90;;;;;;5052660;28;20384;-88
2021/06/08 19:34:45;;;;;;;4.30;3.50;;;19.30;75.00;;;;;;5065575;28;20033;-87
2021/06/08 19:37:10;;;;;;;8.43;6.60;;;19.30;74.90;;;;;;5064981;28;20025;-86
2021/06/08 19:39:36;;;;;;;4.95;4.45;;;19.30;75.00;;;;;;5056499;28;20025;-86
2021/06/08 19:42:04;;;;;;;5.20;4.65;;;19.20;75.10;;;;;;5054799;28;20021;-85
2021/06/08 19:44:38;;;;;;;13.40;10.15;;;19.30;75.20;;;;;;5060103;28;20476;-83
2021/06/08 19:47:16;;;;;;;10.45;8.02;;;19.20;75.30;;;;;;5053858;28;20045;-90
2021/06/08 19:49:51;;;;;;;12.55;5.40;;;19.20;75.50;;;;;;5042939;28;20035;-87
2021/06/08 19:52:17;;;;;;;7.32;4.35;;;19.20;75.70;;;;;;5056791;28;20063;-88
2021/06/08 19:54:46;;;;;;;4.40;4.00;;;19.20;75.70;;;;;;5057786;28;20024;-87
2021/06/08 19:57:12;;;;;;;7.97;3.83;;;19.10;75.60;;;;;;5056161;28;20025;-88
2021/06/08 19:59:39;;;;;;;6.55;4.05;;;19.10;75.60;;;;;;5057109;28;20025;-88
2021/06/08 20:02:44;;;;;;;;;;;;;;;;;;;;;
2021/06/08 20:05:11;;;;;;;6.00;4.03;;;19.10;75.70;;;;;;5056874;28;20104;-80
2021/06/08 20:07:37;;;;;;;4.75;4.28;;;19.00;75.60;;;;;;5053021;28;20032;-82
2021/06/08 20:10:14;;;;;;;3.60;3.30;;;18.90;75.50;;;;;;5057472;28;20025;-89
2021/06/08 20:12:39;;;;;;;4.45;4.00;;;18.90;75.40;;;;;;5073424;28;20013;-92
2021/06/08 20:15:12;;;;;;;18.30;4.13;;;18.90;75.40;;;;;;5064722;28;20120;-93
2021/06/08 20:17:44;;;;;;;6.05;4.10;;;18.80;75.40;;;;;;5063004;28;20021;-86
2021/06/08 20:20:11;;;;;;;4.82;3.83;;;18.80;75.50;;;;;;5055892;28;20031;-88
2021/06/08 20:22:44;;;;;;;4.25;3.45;;;18.80;75.60;;;;;;5068299;28;20033;-90
2021/06/08 20:25:13;;;;;;;4.57;3.83;;;18.80;75.60;;;;;;5054533;28;20033;-88
2021/06/08 20:27:45;;;;;;;16.33;11.38;;;18.70;75.60;;;;;;5071955;28;20033;-88
2021/06/08 20:30:12;;;;;;;5.03;4.47;;;18.80;75.80;;;;;;5064668;28;20032;-88
2021/06/08 20:32:39;;;;;;;5.45;4.60;;;18.70;75.90;;;;;;5055770;28;20021;-82
2021/06/08 20:35:08;;;;;;;4.90;4.38;;;18.70;76.00;;;;;;5060629;28;20037;-87
2021/06/08 20:37:34;;;;;;;5.65;4.38;;;18.70;76.00;;;;;;5056552;28;20033;-84
2021/06/08 20:40:01;;;;;;;6.25;4.15;;;18.60;76.10;;;;;;5054712;28;20017;-83
2021/06/08 20:42:27;;;;;;;5.57;4.43;;;18.60;76.20;;;;;;5054416;28;20092;-84
2021/06/08 20:44:53;;;;;;;5.72;4.53;;;18.60;76.40;;;;;;5041610;28;20053;-84
2021/06/08 20:47:19;;;;;;;5.05;4.50;;;18.60;76.50;;;;;;5050420;28;20024;-83
2021/06/08 20:49:45;;;;;;;6.68;4.68;;;18.60;76.70;;;;;;5053031;28;20391;-84
2021/06/08 20:52:11;;;;;;;6.50;4.75;;;18.50;76.80;;;;;;5041443;28;20032;-85
2021/06/08 20:54:38;;;;;;;6.93;4.90;;;18.60;77.10;;;;;;5040562;28;20120;-84
2021/06/08 20:57:04;;;;;;;6.53;4.85;;;18.50;77.20;;;;;;5043670;28;20021;-84
2021/06/08 20:59:30;;;;;;;6.18;4.90;;;18.50;77.50;;;;;;5041571;28;20540;-84
2021/06/08 21:01:56;;;;;;;6.00;4.78;;;18.50;77.70;;;;;;5042497;28;20021;-83
2021/06/08 21:04:24;;;;;;;9.35;4.90;;;18.50;77.90;;;;;;5043509;28;20082;-84
2021/06/08 21:06:50;;;;;;;6.45;4.55;;;18.50;78.10;;;;;;5044170;28;20025;-84
2021/06/08 21:12:31;;;;;;;6.03;5.15;;;18.40;78.50;;;;;;5009879;28;20066;-83
2021/06/08 21:14:57;;;;;;;10.50;6.97;;;18.40;78.70;;;;;;5047772;28;20053;-83
2021/06/08 21:17:22;;;;;;;9.75;6.32;;;18.40;79.10;;;;;;5044912;28;20017;-83
2021/06/08 21:19:48;;;;;;;8.55;5.50;;;18.40;79.40;;;;;;5047304;28;20024;-83
2021/06/08 21:22:14;;;;;;;5.65;5.05;;;18.40;80.00;;;;;;5048946;28;20040;-83
2021/06/08 21:24:40;;;;;;;6.88;6.18;;;18.40;80.00;;;;;;5055355;28;20043;-82
2021/06/08 21:27:06;;;;;;;7.15;5.25;;;18.30;80.20;;;;;;5046384;28;20052;-82
2021/06/08 21:29:31;;;;;;;6.22;5.60;;;18.30;80.50;;;;;;5039295;28;20490;-81
2021/06/08 21:31:57;;;;;;;10.02;5.57;;;18.30;80.80;;;;;;5035552;28;20055;-80
2021/06/08 21:34:23;;;;;;;8.43;6.00;;;18.30;81.10;;;;;;5035170;28;20033;-81
2021/06/08 21:36:49;;;;;;;8.57;6.28;;;18.30;81.30;;;;;;5035056;28;20021;-79
2021/06/08 21:39:15;;;;;;;9.23;6.47;;;18.30;81.50;;;;;;5035127;28;20030;-79
2021/06/08 21:41:44;;;;;;;8.20;6.00;;;18.20;81.60;;;;;;5034971;28;20072;-80
2021/06/08 21:44:12;;;;;;;8.55;6.32;;;18.20;81.90;;;;;;5034848;28;20025;-79
2021/06/08 21:46:37;;;;;;;10.27;6.70;;;18.20;82.20;;;;;;5034671;28;20043;-79
2021/06/08 21:49:03;;;;;;;7.90;6.50;;;18.20;82.40;;;;;;5033536;28;20030;-79
2021/06/08 21:51:29;;;;;;;7.70;6.13;;;18.20;82.60;;;;;;5034622;28;20030;-79
2021/06/08 21:53:55;;;;;;;7.15;6.43;;;18.10;82.80;;;;;;5033190;28;20025;-79
2021/06/08 21:56:21;;;;;;;17.20;10.85;;;18.10;82.90;;;;;;5034683;28;20022;-86
2021/06/08 21:58:46;;;;;;;12.00;8.55;;;18.10;83.10;;;;;;5036184;28;20045;-87
2021/06/08 22:01:12;;;;;;;7.40;6.70;;;18.10;83.20;;;;;;5035448;28;20028;-86
2021/06/08 22:03:39;;;;;;;10.20;7.68;;;18.10;83.30;;;;;;5049867;28;20468;-86
2021/06/08 22:06:05;;;;;;;12.48;6.78;;;18.10;83.50;;;;;;5045916;28;20029;-86
2021/06/08 22:08:30;;;;;;;7.30;6.40;;;18.10;83.70;;;;;;5034784;28;20091;-84
2021/06/08 22:10:56;;;;;;;9.98;6.68;;;18.00;83.70;;;;;;5051422;28;20119;-84
2021/06/08 22:13:22;;;;;;;9.15;7.25;;;18.00;83.80;;;;;;5038245;28;20055;-84
2021/06/08 22:15:49;;;;;;;7.10;6.40;;;18.00;83.80;;;;;;5059870;28;20335;-84
2021/06/08 22:18:19;;;;;;;11.05;6.88;;;18.10;83.90;;;;;;5052622;28;20069;-84
2021/06/08 22:20:46;;;;;;;8.70;5.45;;;18.10;84.00;;;;;;5037604;28;20407;-83
2021/06/08 22:23:12;;;;;;;6.68;6.05;;;18.00;83.90;;;;;;5037537;28;20131;-83
2021/06/08 22:25:38;;;;;;;12.32;6.25;;;18.10;84.00;;;;;;5036781;28;20408;-84
2021/06/08 22:28:04;;;;;;;9.02;7.03;;;18.00;84.00;;;;;;5036185;28;20064;-84
2021/06/08 22:30:30;;;;;;;8.20;6.40;;;18.10;84.10;;;;;;5036443;28;20025;-84
2021/06/08 22:32:56;;;;;;;8.15;6.68;;;18.10;84.20;;;;;;5045927;28;20025;-85
2021/06/08 22:35:24;;;;;;;9.43;6.78;;;18.10;84.20;;;;;;5046769;28;20168;-83
2021/06/08 22:37:50;;;;;;;10.27;6.28;;;18.10;84.30;;;;;;5042868;28;20032;-83
2021/06/08 22:40:19;;;;;;;8.38;6.38;;;18.10;84.30;;;;;;5051664;28;20026;-83
2021/06/08 22:42:45;;;;;;;7.68;6.88;;;18.10;84.30;;;;;;5036805;28;20379;-84
2021/06/08 22:45:12;;;;;;;9.32;6.75;;;18.00;84.40;;;;;;5036376;28;20029;-85
2021/06/08 22:47:39;;;;;;;8.45;6.72;;;18.00;84.50;;;;;;5034128;28;20422;-84
2021/06/08 22:50:06;;;;;;;11.38;6.85;;;18.10;84.60;;;;;;5034180;28;20464;-84
2021/06/08 22:52:32;;;;;;;7.75;6.68;;;18.10;84.70;;;;;;5035311;28;20028;-84
2021/06/08 22:54:58;;;;;;;7.53;6.82;;;18.00;84.70;;;;;;5033708;28;20468;-83
2021/06/08 22:57:24;;;;;;;8.88;7.28;;;18.00;84.80;;;;;;5033545;28;20025;-84
2021/06/08 22:59:49;;;;;;;7.72;6.93;;;18.00;84.90;;;;;;5034555;28;20017;-81
2021/06/08 23:02:15;;;;;;;11.38;6.95;;;18.00;84.90;;;;;;5033844;28;20029;-81
2021/06/08 23:04:41;;;;;;;10.70;7.07;;;18.00;85.00;;;;;;5033983;28;20104;-81
2021/06/08 23:07:07;;;;;;;7.68;6.88;;;18.00;85.00;;;;;;5034218;28;20458;-81
2021/06/08 23:09:32;;;;;;;14.55;6.93;;;18.00;85.10;;;;;;5033971;28;20027;-81